createdAt,value
2019-02-16T00:00:21.859Z,1.60
2019-02-16T00:02:50.390Z,1.50
2019-02-16T00:05:18.956Z,1.50
2019-02-16T00:07:47.519Z,1.40
2019-02-16T00:10:16.012Z,1.50
2019-02-16T00:12:44.504Z,1.50
2019-02-16T00:15:13.039Z,1.40
2019-02-16T00:17:41.530Z,1.50
2019-02-16T00:20:10.207Z,1.40
2019-02-16T00:22:38.690Z,1.50
2019-02-16T00:25:07.338Z,1.40
2019-02-16T00:27:35.937Z,1.40
2019-02-16T00:30:05.855Z,1.40
2019-02-16T00:32:34.318Z,1.40
2019-02-16T00:35:02.850Z,1.40
2019-02-16T00:37:31.341Z,1.40
2019-02-16T00:39:59.829Z,1.40
2019-02-16T00:42:28.323Z,1.30
2019-02-16T00:44:56.823Z,1.40
2019-02-16T00:47:25.364Z,1.40
2019-02-16T00:49:53.824Z,1.40
2019-02-16T00:52:22.331Z,1.40
2019-02-16T00:54:50.803Z,1.40
2019-02-16T00:57:19.265Z,1.40
2019-02-16T00:59:47.762Z,1.40
2019-02-16T01:02:16.223Z,1.30
2019-02-16T01:04:44.731Z,1.30
2019-02-16T01:07:13.195Z,1.30
2019-02-16T01:09:41.750Z,1.30
2019-02-16T01:12:10.223Z,1.30
2019-02-16T01:14:38.878Z,1.30
2019-02-16T01:17:07.350Z,1.30
2019-02-16T01:19:35.986Z,1.30
2019-02-16T01:22:04.587Z,1.30
2019-02-16T01:24:33.150Z,1.20
2019-02-16T01:27:01.703Z,1.10
2019-02-16T01:29:30.233Z,1.10
2019-02-16T01:31:58.794Z,1.10
2019-02-16T01:34:27.343Z,1.10
2019-02-16T01:36:55.911Z,1.10
2019-02-16T01:39:24.374Z,1.10
2019-02-16T01:41:52.859Z,1.10
2019-02-16T01:44:21.416Z,1.00
2019-02-16T01:46:49.973Z,1.00
2019-02-16T01:49:18.447Z,0.90
2019-02-16T01:51:46.996Z,0.90
2019-02-16T01:54:15.570Z,0.90
2019-02-16T01:56:44.039Z,0.90
2019-02-16T01:59:12.499Z,0.90
2019-02-16T02:01:41.010Z,0.90
2019-02-16T02:04:09.472Z,0.80
2019-02-16T02:06:37.959Z,0.80
2019-02-16T02:09:07.470Z,0.80
2019-02-16T02:11:35.963Z,0.80
2019-02-16T02:14:04.431Z,0.80
2019-02-16T02:16:32.918Z,0.80
2019-02-16T02:19:01.395Z,0.70
2019-02-16T02:21:29.934Z,0.60
2019-02-16T02:23:58.423Z,0.60
2019-02-16T02:26:26.930Z,0.70
2019-02-16T02:28:55.394Z,0.70
2019-02-16T02:31:23.855Z,0.70
2019-02-16T02:33:53.722Z,0.70
2019-02-16T02:36:22.201Z,0.70
2019-02-16T02:38:50.722Z,0.60
2019-02-16T02:41:19.313Z,0.60
2019-02-16T02:43:48.335Z,0.60
2019-02-16T02:46:16.928Z,0.60
2019-02-16T02:48:45.558Z,0.60
2019-02-16T02:51:14.094Z,0.60
2019-02-16T02:53:42.600Z,0.60
2019-02-16T02:56:11.137Z,0.60
2019-02-16T02:58:39.770Z,0.60
2019-02-16T03:01:08.345Z,0.60
2019-02-16T03:03:36.911Z,0.50
2019-02-16T03:06:05.395Z,0.40
2019-02-16T03:08:33.939Z,0.40
2019-02-16T03:11:02.517Z,0.30
2019-02-16T03:13:31.234Z,0.30
2019-02-16T03:15:59.767Z,0.20
2019-02-16T03:18:28.262Z,0.20
2019-02-16T03:20:56.795Z,0.10
2019-02-16T03:23:25.294Z,0.10
2019-02-16T03:26:05.608Z,0.10
2019-02-16T03:28:48.855Z,0.10
2019-02-16T03:31:26.617Z,0.00
2019-02-16T03:34:07.144Z,0.00
2019-02-16T03:36:59.708Z,-0.10
2019-02-16T03:39:28.338Z,-0.10
2019-02-16T03:41:56.817Z,-0.10
2019-02-16T03:44:25.384Z,-0.20
2019-02-16T03:46:53.963Z,-0.20
2019-02-16T03:49:22.476Z,-0.20
2019-02-16T03:51:51.007Z,-0.10
2019-02-16T03:54:19.546Z,-0.10
2019-02-16T03:56:48.022Z,-0.20
2019-02-16T03:59:16.519Z,-0.20
2019-02-16T04:01:45.016Z,-0.20
2019-02-16T04:04:13.562Z,-0.20
2019-02-16T04:06:42.054Z,-0.10
2019-02-16T04:09:10.529Z,0.00
2019-02-16T04:11:39.084Z,0.10
2019-02-16T04:14:07.550Z,0.30
2019-02-16T04:16:36.043Z,0.30
2019-02-16T04:19:04.596Z,0.40
2019-02-16T04:21:33.148Z,0.30
2019-02-16T04:24:01.711Z,0.20
2019-02-16T04:26:30.328Z,0.10
2019-02-16T04:28:58.815Z,0.00
2019-02-16T04:31:27.418Z,-0.10
2019-02-16T04:33:55.891Z,-0.20
2019-02-16T04:36:24.463Z,-0.30
2019-02-16T04:38:52.954Z,-0.30
2019-02-16T04:41:21.494Z,-0.40
2019-02-16T04:43:49.991Z,-0.40
2019-02-16T04:46:18.483Z,-0.50
2019-02-16T04:48:46.978Z,-0.40
2019-02-16T04:51:15.446Z,-0.40
2019-02-16T04:53:43.924Z,-0.50
2019-02-16T04:56:12.494Z,-0.50
2019-02-16T04:58:40.987Z,-0.40
2019-02-16T05:01:09.551Z,-0.50
2019-02-16T05:03:38.019Z,-0.50
2019-02-16T05:06:06.534Z,-0.40
2019-02-16T05:08:35.084Z,-0.40
2019-02-16T05:11:03.554Z,-0.40
2019-02-16T05:13:32.055Z,-0.40
2019-02-16T05:16:00.607Z,-0.50
2019-02-16T05:18:29.106Z,-0.50
2019-02-16T05:20:57.650Z,-0.60
2019-02-16T05:23:26.225Z,-0.60
2019-02-16T05:25:54.764Z,-0.70
2019-02-16T05:28:23.342Z,-0.70
2019-02-16T05:30:51.977Z,-0.70
2019-02-16T05:33:20.544Z,-0.70
2019-02-16T05:35:49.156Z,-0.70
2019-02-16T05:38:17.732Z,-0.70
2019-02-16T05:40:46.346Z,-0.60
2019-02-16T05:43:14.856Z,-0.50
2019-02-16T05:45:43.399Z,-0.50
2019-02-16T05:48:13.078Z,-0.50
2019-02-16T05:50:41.642Z,-0.50
2019-02-16T05:53:10.112Z,-0.50
2019-02-16T05:55:38.689Z,-0.50
2019-02-16T05:58:07.235Z,-0.50
2019-02-16T06:00:35.715Z,-0.50
2019-02-16T06:03:04.215Z,-0.60
2019-02-16T06:05:32.691Z,-0.60
2019-02-16T06:08:01.188Z,-0.70
2019-02-16T06:10:29.845Z,-0.70
2019-02-16T06:12:58.478Z,-0.70
2019-02-16T06:15:26.954Z,-0.70
2019-02-16T06:17:55.463Z,-0.80
2019-02-16T06:20:23.930Z,-0.80
2019-02-16T06:22:52.407Z,-0.80
2019-02-16T06:25:20.918Z,-0.80
2019-02-16T06:27:49.482Z,-0.80
2019-02-16T06:30:18.027Z,-0.90
2019-02-16T06:32:46.561Z,-0.90
2019-02-16T06:35:28.546Z,-0.90
2019-02-16T06:37:57.016Z,-1.00
2019-02-16T06:40:25.512Z,-1.00
2019-02-16T06:42:54.062Z,-1.10
2019-02-16T06:45:22.564Z,-1.00
2019-02-16T06:47:51.218Z,-1.00
2019-02-16T06:50:19.714Z,-1.00
2019-02-16T06:52:48.250Z,-1.00
2019-02-16T06:55:16.754Z,-0.90
2019-02-16T06:57:46.947Z,-0.90
2019-02-16T07:00:17.224Z,-0.80
2019-02-16T07:02:45.764Z,-0.70
2019-02-16T07:05:14.230Z,-0.60
2019-02-16T07:08:02.063Z,-0.60
2019-02-16T07:10:30.540Z,-0.50
2019-02-16T07:13:18.459Z,-0.40
2019-02-16T07:15:48.565Z,-0.30
2019-02-16T07:18:18.675Z,-0.30
2019-02-16T07:20:47.171Z,-0.20
2019-02-16T07:23:22.202Z,0.10
2019-02-16T07:25:45.867Z,0.90
2019-02-16T07:28:14.329Z,2.30
2019-02-16T07:30:42.815Z,3.50
2019-02-16T07:33:11.300Z,4.50
2019-02-16T07:35:39.764Z,5.50
2019-02-16T07:38:08.251Z,6.50
2019-02-16T07:40:36.721Z,7.20
2019-02-16T07:43:05.283Z,8.10
2019-02-16T07:45:38.055Z,9.20
2019-02-16T07:48:08.182Z,10.20
2019-02-16T07:50:38.364Z,11.10
2019-02-16T07:53:08.477Z,12.10
2019-02-16T07:55:38.620Z,13.10
2019-02-16T07:58:11.694Z,14.00
2019-02-16T08:00:47.819Z,14.80
2019-02-16T08:03:17.928Z,15.70
2019-02-16T08:05:56.964Z,16.10
2019-02-16T08:08:45.097Z,16.70
2019-02-16T08:11:15.303Z,17.10
2019-02-16T08:13:45.682Z,17.30
2019-02-16T08:16:18.231Z,17.40
2019-02-16T08:18:48.342Z,17.00
2019-02-16T08:21:36.720Z,16.60
2019-02-16T08:24:09.510Z,16.10
2019-02-16T08:26:42.419Z,15.20
2019-02-16T08:29:12.540Z,14.90
2019-02-16T08:31:42.795Z,14.30
2019-02-16T08:34:15.368Z,13.90
2019-02-16T08:36:45.554Z,13.70
2019-02-16T08:39:25.042Z,13.70
2019-02-16T08:42:07.504Z,14.40
2019-02-16T08:44:49.671Z,15.10
2019-02-16T08:47:22.567Z,16.30
2019-02-16T08:50:01.791Z,17.00
2019-02-16T08:52:31.902Z,17.60
2019-02-16T08:55:02.016Z,17.90
2019-02-16T08:57:47.287Z,18.20
2019-02-16T09:00:17.406Z,18.70
2019-02-16T09:02:50.547Z,18.90
2019-02-16T09:05:20.750Z,19.40
2019-02-16T09:10:58.253Z,19.70
2019-02-16T09:13:34.375Z,19.60
2019-02-16T09:16:04.507Z,19.60
2019-02-16T09:18:34.618Z,19.60
2019-02-16T09:21:14.397Z,19.80
2019-02-16T09:23:39.602Z,20.40
2019-02-16T09:26:18.970Z,20.80
2019-02-16T09:29:00.990Z,20.40
2019-02-16T09:31:47.752Z,20.30
2019-02-16T09:34:24.226Z,20.40
2019-02-16T09:36:57.373Z,20.60
2019-02-16T09:39:43.834Z,20.80
2019-02-16T09:42:13.947Z,21.20
2019-02-16T09:44:53.026Z,21.00
2019-02-16T09:47:28.610Z,20.80
2019-02-16T09:49:58.790Z,20.70
2019-02-16T09:52:28.899Z,20.60
2019-02-16T09:55:01.732Z,20.00
2019-02-16T09:57:37.755Z,20.10
2019-02-16T10:00:10.736Z,20.10
2019-02-16T10:02:40.939Z,20.40
2019-02-16T10:05:20.155Z,20.80
2019-02-16T10:07:50.283Z,21.10
2019-02-16T10:10:20.388Z,20.60
2019-02-16T10:12:50.529Z,20.30
2019-02-16T10:15:26.463Z,20.40
2019-02-16T10:17:56.666Z,20.30
2019-02-16T10:20:26.872Z,19.80
2019-02-16T10:23:12.460Z,19.70
2019-02-16T10:25:42.647Z,19.80
2019-02-16T10:28:18.711Z,20.50
2019-02-16T10:30:57.596Z,20.90
2019-02-16T10:33:36.503Z,21.50
2019-02-16T10:36:18.583Z,21.30
2019-02-16T10:38:57.897Z,21.70
2019-02-16T10:41:31.219Z,21.90
2019-02-16T10:44:17.963Z,22.10
2019-02-16T10:46:57.138Z,21.50
2019-02-16T10:49:36.009Z,22.10
2019-02-16T10:52:09.146Z,21.50
2019-02-16T10:54:44.810Z,21.30
2019-02-16T10:57:31.324Z,20.70
2019-02-16T11:00:01.547Z,20.90
2019-02-16T11:02:47.111Z,21.50
2019-02-16T11:05:20.262Z,21.40
2019-02-16T11:08:05.785Z,21.10
2019-02-16T11:10:38.697Z,20.70
2019-02-16T11:13:08.895Z,20.30
2019-02-16T11:15:44.839Z,20.10
2019-02-16T11:18:26.922Z,20.10
2019-02-16T11:21:12.398Z,19.80
2019-02-16T11:23:57.203Z,19.90
2019-02-16T11:26:30.028Z,19.20
2019-02-16T11:29:11.017Z,18.30
2019-02-16T11:31:40.779Z,17.00
2019-02-16T11:34:16.651Z,15.60
2019-02-16T11:36:58.990Z,14.70
2019-02-16T11:39:44.462Z,14.30
2019-02-16T11:42:17.313Z,13.60
2019-02-16T11:44:47.527Z,12.90
2019-02-16T11:47:17.647Z,12.40
2019-02-16T11:49:51.037Z,12.20
2019-02-16T11:52:27.184Z,11.80
2019-02-16T11:55:06.438Z,11.80
2019-02-16T11:57:45.303Z,11.90
2019-02-16T12:00:18.307Z,11.80
2019-02-16T12:03:00.305Z,11.90
2019-02-16T12:05:33.233Z,12.10
2019-02-16T12:08:03.419Z,12.20
2019-02-16T12:10:36.343Z,12.20
2019-02-16T12:13:23.192Z,12.30
2019-02-16T12:15:56.104Z,12.30
2019-02-16T12:18:28.686Z,12.40
2019-02-16T12:21:07.755Z,12.30
2019-02-16T12:23:49.707Z,12.30
2019-02-16T12:26:25.535Z,12.30
2019-02-16T12:29:01.419Z,12.30
2019-02-16T12:31:31.627Z,12.30
2019-02-16T12:34:04.714Z,12.30
2019-02-16T12:36:41.069Z,12.30
2019-02-16T12:39:11.250Z,12.30
2019-02-16T12:41:41.363Z,12.20
2019-02-16T12:44:11.570Z,12.30
2019-02-16T12:46:44.385Z,12.30
2019-02-16T12:49:30.903Z,12.30
2019-02-16T12:52:03.788Z,12.30
2019-02-16T12:54:33.943Z,12.30
2019-02-16T12:57:06.996Z,12.40
2019-02-16T12:59:49.405Z,12.40
2019-02-16T13:02:25.961Z,12.40
2019-02-16T13:04:57.036Z,12.50
2019-02-16T13:07:32.985Z,12.60
2019-02-16T13:10:06.158Z,12.80
2019-02-16T13:12:42.067Z,12.80
2019-02-16T13:15:21.375Z,12.70
2019-02-16T13:17:57.159Z,12.70
2019-02-16T13:20:30.295Z,12.70
2019-02-16T13:23:06.454Z,12.70
2019-02-16T13:25:42.458Z,12.60
2019-02-16T13:28:24.362Z,12.70
2019-02-16T13:31:10.675Z,12.70
2019-02-16T13:33:52.615Z,12.80
2019-02-16T13:36:22.739Z,12.80
2019-02-16T13:38:52.871Z,12.80
2019-02-16T13:41:29.304Z,12.70
2019-02-16T13:44:15.452Z,12.80
2019-02-16T13:47:01.047Z,12.90
2019-02-16T13:49:31.242Z,12.80
2019-02-16T13:52:17.606Z,12.80
2019-02-16T13:54:50.791Z,12.80
2019-02-16T13:57:37.259Z,12.80
2019-02-16T14:00:12.560Z,12.80
2019-02-16T14:02:59.028Z,12.60
2019-02-16T14:05:37.987Z,12.60
2019-02-16T14:08:17.027Z,12.60
2019-02-16T14:10:59.382Z,12.60
2019-02-16T14:13:35.075Z,12.40
2019-02-16T14:16:07.875Z,12.40
2019-02-16T14:18:36.339Z,12.40
2019-02-16T14:21:04.975Z,12.40
2019-02-16T14:23:33.510Z,12.40
2019-02-16T14:26:02.023Z,12.50
2019-02-16T14:28:30.494Z,12.50
2019-02-16T14:30:59.059Z,12.50
2019-02-16T14:33:27.558Z,12.50
2019-02-16T14:35:56.206Z,12.50
2019-02-16T14:38:38.872Z,12.50
2019-02-16T14:41:07.436Z,12.50
2019-02-16T14:43:35.926Z,12.50
2019-02-16T14:46:04.600Z,12.50
2019-02-16T14:48:33.162Z,12.60
2019-02-16T14:51:01.778Z,12.50
2019-02-16T14:53:30.288Z,12.50
2019-02-16T14:55:58.759Z,12.50
2019-02-16T14:58:27.299Z,12.50
2019-02-16T15:00:57.100Z,12.50
2019-02-16T15:03:25.747Z,12.50
2019-02-16T15:05:54.215Z,12.50
2019-02-16T15:08:22.802Z,12.50
2019-02-16T15:10:51.274Z,12.50
2019-02-16T15:13:19.767Z,12.50
2019-02-16T15:15:48.329Z,12.40
2019-02-16T15:18:16.858Z,12.40
2019-02-16T15:20:45.381Z,12.40
2019-02-16T15:23:13.942Z,12.30
2019-02-16T15:25:42.418Z,12.30
2019-02-16T15:28:10.986Z,12.20
2019-02-16T15:30:39.487Z,12.20
2019-02-16T15:33:08.030Z,12.10
2019-02-16T15:35:36.534Z,12.20
2019-02-16T15:38:05.008Z,12.20
2019-02-16T15:40:33.573Z,12.10
2019-02-16T15:43:02.124Z,12.10
2019-02-16T15:45:50.031Z,12.00
2019-02-16T15:48:18.598Z,12.00
2019-02-16T15:50:47.183Z,12.00
2019-02-16T15:53:15.728Z,12.00
2019-02-16T15:55:44.262Z,11.90
2019-02-16T15:58:12.871Z,11.90
2019-02-16T16:00:41.500Z,11.80
2019-02-16T16:03:10.057Z,11.70
2019-02-16T16:05:38.663Z,11.60
2019-02-16T16:08:24.844Z,11.60
2019-02-16T16:10:55.095Z,11.60
2019-02-16T16:13:27.884Z,11.40
2019-02-16T16:16:03.727Z,11.40
2019-02-16T16:18:49.075Z,11.40
2019-02-16T16:21:19.186Z,11.30
2019-02-16T16:23:52.443Z,11.20
2019-02-16T16:26:22.576Z,11.00
2019-02-16T16:29:07.711Z,10.80
2019-02-16T16:31:54.059Z,10.70
2019-02-16T16:34:36.090Z,10.60
2019-02-16T16:37:09.155Z,10.40
2019-02-16T16:39:39.303Z,10.30
2019-02-16T16:42:15.279Z,10.10
2019-02-16T16:44:57.539Z,10.00
2019-02-16T16:47:27.747Z,9.90
2019-02-16T16:50:18.735Z,9.70
2019-02-16T16:52:51.218Z,9.50
2019-02-16T16:55:24.039Z,9.40
2019-02-16T16:58:00.188Z,9.30
2019-02-16T17:00:47.011Z,9.20
2019-02-16T17:03:25.987Z,9.00
2019-02-16T17:06:08.130Z,8.90
2019-02-16T17:08:38.271Z,8.80
2019-02-16T17:11:20.599Z,8.70
2019-02-16T17:13:50.730Z,8.70
2019-02-16T17:16:37.299Z,8.60
2019-02-16T17:19:10.407Z,8.50
2019-02-16T17:21:40.610Z,8.50
2019-02-16T17:24:10.823Z,8.60
2019-02-16T17:26:40.948Z,8.60
2019-02-16T17:29:11.083Z,8.50
2019-02-16T17:31:56.302Z,8.30
2019-02-16T17:34:44.372Z,8.20
2019-02-16T17:37:17.311Z,8.00
2019-02-16T17:39:53.518Z,8.00
2019-02-16T17:42:29.402Z,7.90
2019-02-16T17:45:02.178Z,7.90
2019-02-16T17:48:00.515Z,7.90
2019-02-16T17:50:39.458Z,7.90
2019-02-16T17:53:09.562Z,7.70
2019-02-16T17:55:39.706Z,7.60
2019-02-16T17:58:28.359Z,7.40
2019-02-16T18:01:10.751Z,7.30
2019-02-16T18:03:43.679Z,7.30
2019-02-16T18:06:13.828Z,7.20
2019-02-16T18:08:44.127Z,7.00
2019-02-16T18:11:31.035Z,6.80
2019-02-16T18:14:07.178Z,6.70
2019-02-16T18:16:40.035Z,6.60
2019-02-16T18:19:10.201Z,6.60
2019-02-16T18:21:43.339Z,6.60
2019-02-16T18:24:13.599Z,6.50
2019-02-16T18:26:43.700Z,6.40
2019-02-16T18:29:14.539Z,6.30
2019-02-16T18:32:03.183Z,6.20
2019-02-16T18:34:36.310Z,6.10
2019-02-16T18:37:15.199Z,6.00
2019-02-16T18:39:54.639Z,5.90
2019-02-16T18:42:39.083Z,5.90
2019-02-16T18:45:15.736Z,5.90
2019-02-16T18:47:54.915Z,5.90
2019-02-16T18:50:28.052Z,5.90
2019-02-16T18:53:06.797Z,5.80
2019-02-16T18:55:42.815Z,5.60
2019-02-16T18:58:22.143Z,5.50
2019-02-16T19:00:52.355Z,5.30
2019-02-16T19:03:22.543Z,5.20
2019-02-16T19:06:09.412Z,5.10
2019-02-16T19:08:42.318Z,5.00
2019-02-16T19:11:12.481Z,4.90
2019-02-16T19:13:59.367Z,4.90
2019-02-16T19:16:29.616Z,4.80
2019-02-16T19:18:59.811Z,4.70
2019-02-16T19:24:25.622Z,4.60
2019-02-16T19:26:55.843Z,4.60
2019-02-16T19:29:25.970Z,4.50
2019-02-16T19:31:59.239Z,4.50
2019-02-16T19:34:38.482Z,4.50
2019-02-16T19:37:11.423Z,4.50
2019-02-16T19:39:50.522Z,4.70
2019-02-16T19:42:20.627Z,4.80
2019-02-16T19:45:02.787Z,4.90
2019-02-16T19:47:33.016Z,4.90
2019-02-16T19:50:18.225Z,4.80
2019-02-16T19:53:03.440Z,4.70
2019-02-16T19:55:36.389Z,4.60
2019-02-16T19:58:22.790Z,4.50
2019-02-16T20:00:58.691Z,4.50
2019-02-16T20:03:40.665Z,4.40
2019-02-16T20:06:10.935Z,4.30
2019-02-16T20:08:46.927Z,4.20
2019-02-16T20:11:17.063Z,4.10
2019-02-16T20:13:49.769Z,4.00
2019-02-16T20:16:22.954Z,4.00
2019-02-16T20:18:55.706Z,4.00
2019-02-16T20:21:25.906Z,4.00
2019-02-16T20:23:56.106Z,3.90
2019-02-16T20:26:29.154Z,3.90
2019-02-16T20:28:59.286Z,3.80
2019-02-16T20:31:35.294Z,3.60
2019-02-16T20:34:17.471Z,3.50
2019-02-16T20:36:53.791Z,3.40
2019-02-16T20:39:23.970Z,3.40
2019-02-16T20:41:59.686Z,3.30
2019-02-16T20:44:29.790Z,3.20
2019-02-16T20:47:11.707Z,3.20
2019-02-16T20:49:41.815Z,3.20
2019-02-16T20:52:11.923Z,3.20
2019-02-16T20:54:42.075Z,3.10
2019-02-16T20:57:27.606Z,3.00
2019-02-16T21:00:09.980Z,3.00
2019-02-16T21:02:56.182Z,3.00
2019-02-16T21:05:26.319Z,2.90
2019-02-16T21:07:56.428Z,2.90
2019-02-16T21:10:29.202Z,2.90
2019-02-16T21:13:01.949Z,2.80
2019-02-16T21:15:41.054Z,2.80
2019-02-16T21:21:05.762Z,2.90
2019-02-16T21:23:41.579Z,2.80
2019-02-16T21:26:14.386Z,2.80
2019-02-16T21:28:44.519Z,2.80
2019-02-16T21:31:14.630Z,2.70
2019-02-16T21:33:44.825Z,2.60
2019-02-16T21:36:14.935Z,2.60
2019-02-16T21:38:45.136Z,2.70
2019-02-16T21:41:15.312Z,2.70
2019-02-16T21:43:48.421Z,2.70
2019-02-16T21:46:21.791Z,2.60
2019-02-16T21:48:57.830Z,2.60
2019-02-16T21:51:27.942Z,2.70
2019-02-16T21:54:01.202Z,2.60
2019-02-16T21:56:34.348Z,2.50
2019-02-16T21:59:20.960Z,2.40
2019-02-16T22:02:02.955Z,2.40
2019-02-16T22:04:48.006Z,2.40
2019-02-16T22:07:29.243Z,2.40
2019-02-16T22:09:59.375Z,2.30
2019-02-16T22:15:35.485Z,2.20
2019-02-16T22:18:04.120Z,2.10
2019-02-16T22:20:32.740Z,2.00
2019-02-16T22:23:01.349Z,2.00
2019-02-16T22:25:29.935Z,2.00
2019-02-16T22:27:58.403Z,2.00
2019-02-16T22:30:26.957Z,2.00
2019-02-16T22:32:55.528Z,2.00
2019-02-16T22:35:24.067Z,2.00
2019-02-16T22:37:52.630Z,2.00
2019-02-16T22:40:21.187Z,2.00
2019-02-16T22:42:49.660Z,2.00
2019-02-16T22:45:18.155Z,2.00
2019-02-16T22:47:46.719Z,1.90
2019-02-16T22:50:15.292Z,1.90
2019-02-16T22:52:43.767Z,1.90
2019-02-16T22:55:12.479Z,1.90
2019-02-16T22:57:41.014Z,1.90
2019-02-16T23:00:17.939Z,2.00
2019-02-16T23:02:47.134Z,2.00
2019-02-16T23:05:15.674Z,2.10
2019-02-16T23:07:44.233Z,2.10
2019-02-16T23:10:12.978Z,2.00
2019-02-16T23:12:41.631Z,2.00
2019-02-16T23:15:12.038Z,1.90
2019-02-16T23:17:40.515Z,1.90
2019-02-16T23:20:11.347Z,1.80
2019-02-16T23:22:40.086Z,1.80
2019-02-16T23:25:09.318Z,1.70
2019-02-16T23:27:37.786Z,1.70
2019-02-16T23:30:09.390Z,1.70
2019-02-16T23:32:37.941Z,1.70
2019-02-16T23:35:08.116Z,1.70
2019-02-16T23:37:36.682Z,1.70
2019-02-16T23:40:07.658Z,1.70
2019-02-16T23:42:36.238Z,1.70
2019-02-16T23:45:07.108Z,1.60
2019-02-16T23:47:35.599Z,1.60
2019-02-16T23:50:06.097Z,1.50
2019-02-16T23:52:34.670Z,1.40
2019-02-16T23:55:04.138Z,1.40
2019-02-16T23:57:32.722Z,1.40
